createdAt,value
2022-08-22T00:02:46.875Z,9.10
2022-08-22T00:02:48.331Z,13.50
2022-08-22T00:02:58.277Z,13.50
2022-08-22T00:03:08.535Z,9.70
2022-08-22T00:06:06.797Z,8.20
2022-08-22T00:08:55.851Z,6.00
2022-08-22T00:11:46.774Z,6.70
2022-08-22T00:14:31.866Z,9.30
2022-08-22T00:17:32.809Z,7.80
2022-08-22T00:20:08.614Z,8.20
2022-08-22T00:22:42.902Z,7.40
2022-08-22T00:25:36.684Z,7.00
2022-08-22T00:28:16.895Z,7.60
2022-08-22T00:30:55.282Z,6.60
2022-08-22T00:33:40.447Z,6.30
2022-08-22T00:36:20.622Z,8.10
2022-08-22T00:39:12.597Z,9.20
2022-08-22T00:42:00.213Z,7.00
2022-08-22T00:45:02.156Z,7.40
2022-08-22T00:47:45.492Z,9.30
2022-08-22T00:50:39.697Z,11.20
2022-08-22T00:53:28.233Z,9.80
2022-08-22T00:56:42.109Z,8.10
2022-08-22T00:59:23.979Z,7.40
2022-08-22T01:02:18.234Z,10.00
2022-08-22T01:05:16.097Z,9.00
2022-08-22T01:08:14.294Z,12.00
2022-08-22T01:11:17.916Z,9.10
2022-08-22T01:14:12.609Z,10.10
2022-08-22T01:17:00.873Z,17.10
2022-08-22T01:19:50.006Z,12.40
2022-08-22T01:22:30.355Z,9.60
2022-08-22T01:25:25.906Z,9.70
2022-08-22T01:28:23.404Z,10.60
2022-08-22T01:31:24.972Z,9.20
2022-08-22T01:34:26.214Z,8.50
2022-08-22T01:37:13.214Z,11.50
2022-08-22T01:40:07.715Z,15.10
2022-08-22T01:42:55.561Z,14.70
2022-08-22T01:45:36.905Z,10.60
2022-08-22T01:48:24.628Z,11.00
2022-08-22T01:51:23.643Z,9.10
2022-08-22T01:54:03.663Z,10.30
2022-08-22T01:56:45.264Z,9.80
2022-08-22T01:59:33.924Z,9.10
2022-08-22T02:02:28.250Z,8.90
2022-08-22T02:05:11.774Z,10.10
2022-08-22T02:07:46.440Z,10.20
2022-08-22T02:10:23.811Z,10.10
2022-08-22T02:13:16.148Z,9.00
2022-08-22T02:15:53.315Z,11.10
2022-08-22T02:18:34.066Z,9.40
2022-08-22T02:21:11.910Z,8.50
2022-08-22T02:24:03.055Z,8.30
2022-08-22T02:26:51.873Z,10.00
2022-08-22T02:29:36.522Z,9.10
2022-08-22T02:32:28.593Z,12.20
2022-08-22T02:35:09.233Z,8.70
2022-08-22T02:37:49.670Z,11.10
2022-08-22T02:40:39.850Z,9.00
2022-08-22T02:43:37.153Z,9.80
2022-08-22T02:46:31.751Z,7.50
2022-08-22T02:49:27.478Z,9.00
2022-08-22T02:52:22.067Z,10.50
2022-08-22T02:55:16.798Z,13.70
2022-08-22T02:58:01.181Z,14.00
2022-08-22T03:00:44.576Z,11.70
2022-08-22T03:03:23.736Z,8.70
2022-08-22T03:06:01.895Z,9.60
2022-08-22T03:08:35.515Z,9.80
2022-08-22T03:11:19.638Z,9.90
2022-08-22T03:14:05.083Z,10.70
2022-08-22T03:17:13.276Z,11.00
2022-08-22T03:20:00.492Z,9.40
2022-08-22T03:22:58.596Z,11.00
2022-08-22T03:25:45.768Z,11.20
2022-08-22T03:28:30.605Z,15.00
2022-08-22T03:31:11.198Z,11.00
2022-08-22T03:33:42.869Z,10.70
2022-08-22T03:36:14.263Z,11.50
2022-08-22T03:39:20.487Z,10.60
2022-08-22T03:42:29.360Z,9.80
2022-08-22T03:45:22.933Z,8.90
2022-08-22T03:48:25.773Z,9.70
2022-08-22T03:51:12.275Z,10.50
2022-08-22T03:54:18.409Z,12.30
2022-08-22T03:57:14.900Z,12.50
2022-08-22T03:59:56.141Z,12.10
2022-08-22T04:02:50.146Z,9.30
2022-08-22T04:05:43.803Z,10.30
2022-08-22T04:08:14.947Z,10.80
2022-08-22T04:10:58.953Z,11.50
2022-08-22T04:13:57.565Z,10.60
2022-08-22T04:16:48.191Z,10.50
2022-08-22T04:19:44.687Z,10.70
2022-08-22T04:22:43.043Z,10.20
2022-08-22T04:25:31.837Z,15.10
2022-08-22T04:28:18.952Z,11.00
2022-08-22T04:30:54.968Z,10.30
2022-08-22T04:33:30.639Z,11.50
2022-08-22T04:36:29.587Z,11.90
2022-08-22T04:39:18.657Z,12.30
2022-08-22T04:42:29.190Z,10.50
2022-08-22T04:45:06.263Z,10.30
2022-08-22T04:48:14.197Z,9.70
2022-08-22T04:50:53.560Z,7.10
2022-08-22T04:53:39.767Z,9.30
2022-08-22T04:56:31.386Z,9.90
2022-08-22T04:59:12.868Z,11.80
2022-08-22T05:01:58.822Z,10.50
2022-08-22T05:04:32.428Z,8.90
2022-08-22T05:07:03.723Z,11.60
2022-08-22T05:09:38.152Z,8.90
2022-08-22T05:12:14.776Z,8.60
2022-08-22T05:14:56.371Z,11.70
2022-08-22T05:17:29.798Z,10.80
2022-08-22T05:20:04.198Z,8.30
2022-08-22T05:25:11.516Z,8.90
2022-08-22T05:27:45.012Z,7.30
2022-08-22T05:30:22.043Z,9.70
2022-08-22T05:33:02.299Z,8.50
2022-08-22T05:35:38.184Z,9.50
2022-08-22T05:38:17.339Z,8.90
2022-08-22T05:40:55.599Z,12.70
2022-08-22T05:43:29.324Z,9.60
2022-08-22T05:45:59.630Z,11.40
2022-08-22T05:48:44.283Z,10.20
2022-08-22T05:53:51.782Z,9.20
2022-08-22T05:56:47.445Z,10.10
2022-08-22T05:59:25.729Z,9.70
2022-08-22T06:02:07.211Z,10.80
2022-08-22T06:04:52.156Z,8.40
2022-08-22T06:07:27.548Z,7.30
2022-08-22T06:10:12.023Z,6.90
2022-08-22T06:13:02.508Z,10.00
2022-08-22T06:15:45.397Z,12.00
2022-08-22T06:18:23.270Z,9.70
2022-08-22T06:20:58.240Z,10.80
2022-08-22T06:23:34.685Z,8.60
2022-08-22T06:26:05.697Z,10.20
2022-08-22T06:28:56.348Z,9.10
2022-08-22T06:31:36.684Z,8.80
2022-08-22T06:34:21.108Z,6.80
2022-08-22T06:36:52.218Z,7.50
2022-08-22T06:39:25.129Z,7.60
2022-08-22T06:42:02.280Z,8.60
2022-08-22T06:44:37.433Z,7.10
2022-08-22T06:47:14.656Z,7.20
2022-08-22T06:49:48.773Z,8.10
2022-08-22T06:52:26.046Z,8.30
2022-08-22T06:55:02.578Z,7.10
2022-08-22T06:57:31.088Z,8.30
2022-08-22T07:00:06.233Z,8.20
2022-08-22T07:02:43.385Z,12.20
2022-08-22T07:05:25.999Z,8.90
2022-08-22T07:07:58.195Z,22.00
2022-08-22T07:10:27.475Z,10.90
2022-08-22T07:12:57.643Z,11.10
2022-08-22T07:15:36.799Z,7.90
2022-08-22T07:18:17.628Z,8.50
2022-08-22T07:20:59.383Z,7.30
2022-08-22T07:23:48.288Z,8.70
2022-08-22T07:26:49.947Z,6.20
2022-08-22T07:29:42.002Z,7.70
2022-08-22T07:32:21.069Z,10.60
2022-08-22T07:34:56.554Z,8.90
2022-08-22T07:37:37.567Z,10.80
2022-08-22T07:41:00.766Z,9.20
2022-08-22T07:43:34.659Z,9.80
2022-08-22T07:46:26.509Z,5.10
2022-08-22T07:49:10.125Z,8.20
2022-08-22T07:51:46.617Z,7.30
2022-08-22T07:54:22.780Z,6.90
2022-08-22T07:57:22.894Z,9.30
2022-08-22T07:59:54.026Z,7.90
2022-08-22T08:02:24.770Z,7.60
2022-08-22T08:04:56.427Z,12.80
2022-08-22T08:07:29.363Z,7.40
2022-08-22T08:10:09.956Z,9.30
2022-08-22T08:12:57.984Z,9.60
2022-08-22T08:15:36.050Z,10.00
2022-08-22T08:18:14.112Z,7.90
2022-08-22T08:20:43.290Z,9.80
2022-08-22T08:23:23.413Z,9.50
2022-08-22T08:26:10.130Z,10.00
2022-08-22T08:28:52.444Z,10.20
2022-08-22T08:31:44.823Z,9.50
2022-08-22T08:34:26.226Z,9.10
2022-08-22T08:37:15.428Z,8.60
2022-08-22T08:39:51.007Z,7.30
2022-08-22T08:43:02.048Z,8.10
2022-08-22T08:46:08.153Z,11.20
2022-08-22T08:49:06.399Z,10.10
2022-08-22T08:51:50.449Z,8.20
2022-08-22T08:54:47.461Z,7.50
2022-08-22T08:57:46.074Z,10.10
2022-08-22T09:00:35.549Z,9.30
2022-08-22T09:03:30.789Z,8.50
2022-08-22T09:06:54.818Z,10.80
2022-08-22T09:12:19.898Z,7.60
2022-08-22T09:15:00.804Z,8.70
2022-08-22T09:18:04.911Z,7.10
2022-08-22T09:21:30.736Z,8.70
2022-08-22T09:24:37.396Z,7.50
2022-08-22T09:27:16.329Z,11.70
2022-08-22T09:30:11.590Z,7.40
2022-08-22T09:33:13.428Z,9.90
2022-08-22T09:35:58.796Z,12.60
2022-08-22T09:38:51.533Z,11.30
2022-08-22T09:41:45.090Z,12.50
2022-08-22T09:44:14.401Z,8.70
2022-08-22T09:46:56.603Z,9.90
2022-08-22T09:49:36.960Z,6.90
2022-08-22T09:52:30.028Z,7.90
2022-08-22T09:55:15.908Z,9.40
2022-08-22T09:58:03.849Z,6.30
2022-08-22T10:00:51.370Z,3.20
2022-08-22T10:03:51.502Z,10.00
2022-08-22T10:06:40.270Z,11.70
2022-08-22T10:09:13.605Z,7.00
2022-08-22T10:12:01.416Z,4.70
2022-08-22T10:14:41.112Z,4.20
2022-08-22T10:17:28.518Z,4.70
2022-08-22T10:20:19.636Z,5.70
2022-08-22T10:23:20.995Z,5.30
2022-08-22T10:26:22.962Z,9.90
2022-08-22T10:29:07.868Z,6.30
2022-08-22T10:32:01.405Z,7.30
2022-08-22T10:34:48.536Z,6.60
2022-08-22T10:37:34.053Z,7.80
2022-08-22T10:40:26.724Z,5.60
2022-08-22T10:43:00.365Z,9.30
2022-08-22T10:45:36.407Z,7.50
2022-08-22T10:48:31.810Z,5.20
2022-08-22T10:51:20.472Z,5.70
2022-08-22T10:54:26.596Z,6.30
2022-08-22T10:57:29.539Z,5.50
2022-08-22T11:00:22.520Z,15.10
2022-08-22T11:03:21.872Z,6.10
2022-08-22T11:06:05.716Z,5.80
2022-08-22T11:08:59.534Z,6.40
2022-08-22T11:11:47.562Z,5.00
2022-08-22T11:14:19.844Z,5.90
2022-08-22T11:17:27.904Z,8.80
2022-08-22T11:20:23.559Z,6.00
2022-08-22T11:23:15.387Z,7.30
2022-08-22T11:26:38.364Z,6.00
2022-08-22T11:29:33.849Z,6.90
2022-08-22T11:32:19.089Z,6.40
2022-08-22T11:35:09.035Z,7.40
2022-08-22T11:38:04.091Z,5.40
2022-08-22T11:41:02.254Z,9.10
2022-08-22T11:43:48.936Z,7.70
2022-08-22T11:46:31.124Z,7.60
2022-08-22T11:49:25.601Z,7.90
2022-08-22T11:52:13.858Z,6.10
2022-08-22T11:54:53.266Z,7.60
2022-08-22T11:57:44.335Z,5.80
2022-08-22T12:00:54.347Z,8.20
2022-08-22T12:04:09.721Z,7.70
2022-08-22T12:07:14.297Z,6.90
2022-08-22T12:09:43.924Z,6.00
2022-08-22T12:12:37.280Z,8.00
2022-08-22T12:15:09.736Z,7.90
2022-08-22T12:18:01.556Z,7.80
2022-08-22T12:20:52.821Z,6.50
2022-08-22T12:23:43.226Z,7.30
2022-08-22T12:26:53.403Z,6.10
2022-08-22T12:29:40.109Z,5.90
2022-08-22T12:32:22.845Z,6.20
2022-08-22T12:35:13.995Z,5.30
2022-08-22T12:37:52.217Z,4.70
2022-08-22T12:41:10.299Z,5.80
2022-08-22T12:43:52.510Z,6.90
2022-08-22T12:46:33.728Z,6.10
2022-08-22T12:49:19.084Z,5.40
2022-08-22T12:52:14.220Z,5.80
2022-08-22T12:54:51.983Z,5.20
2022-08-22T12:57:44.235Z,5.50
2022-08-22T13:00:32.230Z,3.60
2022-08-22T13:03:23.615Z,5.20
2022-08-22T13:05:57.252Z,5.70
2022-08-22T13:08:33.586Z,6.30
2022-08-22T13:11:23.304Z,6.50
2022-08-22T13:14:01.283Z,5.20
2022-08-22T13:16:51.116Z,6.20
2022-08-22T13:19:24.857Z,5.20
2022-08-22T13:22:12.948Z,7.00
2022-08-22T13:24:58.135Z,5.20
2022-08-22T13:27:32.954Z,5.90
2022-08-22T13:30:13.640Z,4.90
2022-08-22T13:32:56.705Z,6.50
2022-08-22T13:35:45.401Z,5.50
2022-08-22T13:38:26.639Z,7.10
2022-08-22T13:40:58.553Z,5.90
2022-08-22T13:43:52.887Z,7.90
2022-08-22T13:46:35.444Z,7.50
2022-08-22T13:49:08.191Z,6.50
2022-08-22T13:51:53.063Z,6.50
2022-08-22T13:54:44.218Z,8.20
2022-08-22T13:57:29.835Z,5.30
2022-08-22T14:00:33.174Z,9.50
2022-08-22T14:03:14.531Z,5.60
2022-08-22T14:06:32.509Z,5.20
2022-08-22T14:09:31.825Z,4.80
2022-08-22T14:12:17.295Z,5.00
2022-08-22T14:14:49.893Z,6.30
2022-08-22T14:17:25.462Z,5.50
2022-08-22T14:20:11.109Z,4.60
2022-08-22T14:22:53.088Z,5.10
2022-08-22T14:25:29.361Z,4.00
2022-08-22T14:28:09.186Z,4.90
2022-08-22T14:31:14.562Z,4.80
2022-08-22T14:33:54.393Z,4.90
2022-08-22T14:36:49.334Z,4.40
2022-08-22T14:39:43.718Z,5.80
2022-08-22T14:42:28.694Z,6.70
2022-08-22T14:45:20.139Z,7.50
2022-08-22T14:48:29.464Z,5.50
2022-08-22T14:51:23.638Z,9.00
2022-08-22T14:53:53.599Z,7.50
2022-08-22T14:56:28.487Z,5.70
2022-08-22T14:59:08.649Z,7.50
2022-08-22T15:01:55.987Z,7.00
2022-08-22T15:04:33.503Z,6.90
2022-08-22T15:07:05.156Z,7.20
2022-08-22T15:09:36.967Z,12.10
2022-08-22T15:12:30.094Z,18.60
2022-08-22T15:15:05.555Z,12.80
2022-08-22T15:17:51.028Z,11.30
2022-08-22T15:20:34.155Z,12.10
2022-08-22T15:23:15.349Z,13.60
2022-08-22T15:25:47.007Z,9.60
2022-08-22T15:28:23.700Z,5.90
2022-08-22T15:31:07.828Z,7.20
2022-08-22T15:33:45.391Z,5.80
2022-08-22T15:36:22.365Z,8.50
2022-08-22T15:39:31.661Z,5.90
2022-08-22T15:42:08.488Z,7.20
2022-08-22T15:44:44.187Z,6.10
2022-08-22T15:47:40.034Z,5.00
2022-08-22T15:50:17.044Z,5.20
2022-08-22T15:53:24.906Z,3.80
2022-08-22T15:56:05.167Z,8.70
2022-08-22T15:58:40.163Z,3.40
2022-08-22T16:01:25.355Z,4.90
2022-08-22T16:04:15.836Z,8.50
2022-08-22T16:06:50.507Z,3.20
2022-08-22T16:09:40.213Z,4.70
2022-08-22T16:12:29.008Z,5.50
2022-08-22T16:15:00.382Z,5.00
2022-08-22T16:17:29.465Z,4.70
2022-08-22T16:20:19.508Z,4.30
2022-08-22T16:22:59.729Z,2.50
2022-08-22T16:25:48.078Z,11.30
2022-08-22T16:28:36.359Z,3.80
2022-08-22T16:31:25.649Z,7.10
2022-08-22T16:34:19.443Z,3.40
2022-08-22T16:37:10.223Z,3.40
2022-08-22T16:39:48.629Z,4.00
2022-08-22T16:42:24.474Z,6.40
2022-08-22T16:45:36.297Z,6.40
2022-08-22T16:48:25.065Z,8.00
2022-08-22T16:51:19.823Z,6.30
2022-08-22T16:54:10.220Z,6.90
2022-08-22T16:57:14.610Z,6.40
2022-08-22T16:59:55.123Z,8.20
2022-08-22T17:03:11.248Z,5.10
2022-08-22T17:05:55.546Z,6.40
2022-08-22T17:08:35.915Z,6.30
2022-08-22T17:11:16.007Z,6.20
2022-08-22T17:14:03.477Z,6.60
2022-08-22T17:16:54.226Z,6.20
2022-08-22T17:19:39.479Z,6.80
2022-08-22T17:22:33.635Z,5.80
2022-08-22T17:25:39.239Z,7.50
2022-08-22T17:28:35.159Z,5.50
2022-08-22T17:31:21.340Z,7.50
2022-08-22T17:34:02.652Z,5.30
2022-08-22T17:36:57.433Z,7.10
2022-08-22T17:39:34.808Z,12.10
2022-08-22T17:42:20.967Z,7.40
2022-08-22T17:45:09.081Z,8.60
2022-08-22T17:48:12.796Z,22.70
2022-08-22T17:50:56.788Z,42.00
2022-08-22T17:53:31.664Z,20.30
2022-08-22T17:56:16.690Z,11.60
2022-08-22T17:58:55.347Z,9.20
2022-08-22T18:02:08.253Z,10.10
2022-08-22T18:05:07.264Z,8.70
2022-08-22T18:07:50.688Z,7.50
2022-08-22T18:10:51.158Z,8.20
2022-08-22T18:13:50.058Z,8.90
2022-08-22T18:16:32.271Z,8.80
2022-08-22T18:19:10.562Z,6.50
2022-08-22T18:21:54.596Z,7.90
2022-08-22T18:24:42.695Z,7.90
2022-08-22T18:27:41.422Z,12.70
2022-08-22T18:30:21.808Z,10.70
2022-08-22T18:33:29.081Z,10.50
2022-08-22T18:36:15.409Z,12.90
2022-08-22T18:39:07.670Z,17.70
2022-08-22T18:41:46.477Z,15.40
2022-08-22T18:44:24.259Z,14.10
2022-08-22T18:47:10.705Z,10.40
2022-08-22T18:49:44.532Z,8.90
2022-08-22T18:52:41.827Z,9.50
2022-08-22T18:55:28.242Z,8.60
2022-08-22T18:58:35.076Z,7.80
2022-08-22T19:01:23.383Z,6.50
2022-08-22T19:04:03.990Z,5.80
2022-08-22T19:07:16.196Z,5.50
2022-08-22T19:10:19.116Z,7.30
2022-08-22T19:13:10.598Z,5.30
2022-08-22T19:15:53.242Z,6.40
2022-08-22T19:18:37.753Z,5.10
2022-08-22T19:21:42.951Z,4.10
2022-08-22T19:24:28.773Z,5.10
2022-08-22T19:27:09.241Z,5.00
2022-08-22T19:29:38.843Z,7.10
2022-08-22T19:32:13.040Z,5.30
2022-08-22T19:34:47.125Z,8.40
2022-08-22T19:40:14.105Z,8.30
2022-08-22T19:42:45.133Z,9.00
2022-08-22T19:45:31.026Z,7.00
2022-08-22T19:48:14.150Z,6.60
2022-08-22T19:50:45.940Z,6.50
2022-08-22T19:53:35.065Z,5.60
2022-08-22T19:56:33.127Z,7.30
2022-08-22T19:59:30.038Z,5.80
2022-08-22T20:02:20.597Z,5.60
2022-08-22T20:05:09.205Z,4.70
2022-08-22T20:07:54.110Z,5.50
2022-08-22T20:10:46.124Z,5.40
2022-08-22T20:13:28.945Z,5.80
2022-08-22T20:16:21.698Z,5.60
2022-08-22T20:19:01.920Z,5.30
2022-08-22T20:21:45.529Z,4.40
2022-08-22T20:24:32.372Z,8.20
2022-08-22T20:27:14.500Z,7.40
2022-08-22T20:29:50.599Z,5.20
2022-08-22T20:32:24.398Z,6.10
2022-08-22T20:34:59.491Z,5.70
2022-08-22T20:38:05.466Z,7.90
2022-08-22T20:40:56.078Z,7.10
2022-08-22T20:43:39.963Z,6.50
2022-08-22T20:46:43.751Z,6.20
2022-08-22T20:49:29.434Z,7.90
2022-08-22T20:52:01.202Z,10.80
2022-08-22T20:54:37.649Z,6.10
2022-08-22T20:57:16.573Z,7.80
2022-08-22T21:00:08.261Z,6.90
2022-08-22T21:03:00.012Z,9.80
2022-08-22T21:05:41.999Z,5.70
2022-08-22T21:08:19.841Z,7.60
2022-08-22T21:11:24.985Z,10.70
2022-08-22T21:13:54.201Z,8.60
2022-08-22T21:16:31.411Z,5.40
2022-08-22T21:19:04.547Z,6.40
2022-08-22T21:21:41.450Z,6.30
2022-08-22T21:24:11.055Z,6.30
2022-08-22T21:26:59.910Z,8.60
2022-08-22T21:29:32.682Z,7.60
2022-08-22T21:32:22.128Z,8.90
2022-08-22T21:34:52.995Z,10.10
2022-08-22T21:37:42.525Z,11.10
2022-08-22T21:40:30.563Z,9.80
2022-08-22T21:43:09.797Z,10.10
2022-08-22T21:45:39.301Z,12.60
2022-08-22T21:48:34.214Z,9.40
2022-08-22T21:51:35.198Z,7.80
2022-08-22T21:54:31.718Z,6.60
2022-08-22T21:57:14.712Z,9.30
2022-08-22T21:59:51.880Z,6.30
2022-08-22T22:02:36.640Z,8.50
2022-08-22T22:05:13.777Z,5.00
2022-08-22T22:07:48.601Z,5.80
2022-08-22T22:10:19.652Z,6.70
2022-08-22T22:12:53.250Z,5.40
2022-08-22T22:15:27.909Z,6.60
2022-08-22T22:17:59.152Z,7.90
2022-08-22T22:20:32.902Z,10.40
2022-08-22T22:25:39.766Z,8.70
2022-08-22T22:28:22.875Z,7.50
2022-08-22T22:30:58.022Z,9.10
2022-08-22T22:33:30.189Z,9.20
2022-08-22T22:36:11.337Z,7.80
2022-08-22T22:38:41.510Z,9.50
2022-08-22T22:41:11.685Z,7.50
2022-08-22T22:43:41.149Z,6.30
2022-08-22T22:46:11.236Z,9.20
2022-08-22T22:48:41.510Z,8.90
2022-08-22T22:51:13.956Z,7.30
2022-08-22T22:53:46.959Z,6.50
2022-08-22T22:56:21.313Z,8.50
2022-08-22T22:59:00.718Z,11.90
2022-08-22T23:02:14.729Z,7.10
2022-08-22T23:04:50.853Z,9.00
2022-08-22T23:07:25.680Z,7.20
2022-08-22T23:09:56.761Z,8.70
2022-08-22T23:12:38.664Z,9.70
2022-08-22T23:15:09.376Z,10.90
2022-08-22T23:17:38.629Z,10.00
2022-08-22T23:20:10.739Z,8.90
2022-08-22T23:22:43.729Z,7.40
2022-08-22T23:25:13.204Z,10.80
2022-08-22T23:27:45.299Z,6.70
2022-08-22T23:30:25.150Z,7.70
2022-08-22T23:32:56.436Z,7.40
2022-08-22T23:35:25.525Z,7.50
2022-08-22T23:37:55.794Z,7.10
2022-08-22T23:40:26.442Z,6.10
2022-08-22T23:43:00.481Z,6.70
2022-08-22T23:47:59.566Z,6.70
2022-08-22T23:50:29.271Z,7.80
2022-08-22T23:52:58.601Z,6.00
2022-08-22T23:55:28.053Z,7.10
2022-08-22T23:57:58.165Z,7.60
